Ana Sayfa
METAR-TAF:

METAR-TAF

Havaalanları :

Fairfield County Airport

Lancaster, Ohio, Amerika Birleşik Devletleri

Enlem: 39-45-26N, Boylam: 082-39-48W, yükseklik: 264 m

Güncel hava durumu gözlemi

Rapor saat 01:53 UTC de 58 dakika önce yapıldı.
Rüzgar güney/güneybatıdan 3 kt
Sıcaklık 27°C
Nem 79%
Basınç 1015 hPa
Görüş mesafesi: 16.1 km
Açık gökyüzü

METAR: KLHQ 200153Z AUTO 20003KT 10SM CLR 27/23 A2998 RMK AO2 SLP143 T02720233

Saat: 22:51 (02:51 UTC)


TAF: eksik

4.000'den fazla havaalanı için hava durumu gözlemleri ve tahminleri (METAR ve TAF raporları).

Kullanılabilir istasyonlar harita üzerinde sarı ve kırmızı noktalarla gösterilir.

İstasyonun adını görmek için fareyi noktanın üzerinde gezdirin.

Sonrasında hava gözlem ve tahminlerini görmek için tıklayın.

Haritayı değiştirmek için: yaklaştırmak için siyah artı işaretli yeşil düğmeye ve uzaklaştırmak için de eksi işaretli düğmeye hızla tıklayın; bitişik haritalar için yeşil okları kullanın.


METAR-TAF: